sensor_id;sensor_type;location;lat;lon;timestamp;pressure;altitude;pressure_sealevel;temperature;humidity
8294;BME280;4185;41.506;24.938;2023-07-31T00:02:20;93090.09;;;20.05;79.81
8294;BME280;4185;41.506;24.938;2023-07-31T00:04:47;93087.38;;;19.97;79.84
8294;BME280;4185;41.506;24.938;2023-07-31T00:07:14;93089.94;;;19.88;80.06
8294;BME280;4185;41.506;24.938;2023-07-31T00:09:41;93085.94;;;19.81;80.44
8294;BME280;4185;41.506;24.938;2023-07-31T00:12:08;93085.78;;;19.72;80.56
8294;BME280;4185;41.506;24.938;2023-07-31T00:14:36;93071.28;;;19.49;80.63
8294;BME280;4185;41.506;24.938;2023-07-31T00:17:03;93081.59;;;19.33;81.83
8294;BME280;4185;41.506;24.938;2023-07-31T00:19:30;93085.63;;;19.24;82.71
8294;BME280;4185;41.506;24.938;2023-07-31T00:21:57;93091.13;;;19.24;83.14
8294;BME280;4185;41.506;24.938;2023-07-31T00:24:23;93090.03;;;19.27;82.87
8294;BME280;4185;41.506;24.938;2023-07-31T00:26:50;93090.25;;;19.29;82.64
8294;BME280;4185;41.506;24.938;2023-07-31T00:29:17;93081.22;;;19.44;81.83
8294;BME280;4185;41.506;24.938;2023-07-31T00:31:45;93077.31;;;19.62;81.15
8294;BME280;4185;41.506;24.938;2023-07-31T00:34:12;93078.59;;;19.69;80.55
8294;BME280;4185;41.506;24.938;2023-07-31T00:36:39;93078.25;;;19.65;80.52
8294;BME280;4185;41.506;24.938;2023-07-31T00:39:05;93081.94;;;19.60;80.68
8294;BME280;4185;41.506;24.938;2023-07-31T00:41:32;93080.63;;;19.61;80.99
8294;BME280;4185;41.506;24.938;2023-07-31T00:43:59;93077.53;;;19.57;80.79
8294;BME280;4185;41.506;24.938;2023-07-31T00:46:25;93084.13;;;19.54;80.95
8294;BME280;4185;41.506;24.938;2023-07-31T00:48:54;93077.72;;;19.43;81.32
8294;BME280;4185;41.506;24.938;2023-07-31T00:51:21;93061.41;;;19.30;81.58
8294;BME280;4185;41.506;24.938;2023-07-31T00:53:48;93069.25;;;19.26;82.02
8294;BME280;4185;41.506;24.938;2023-07-31T00:56:15;93065.22;;;19.20;81.90
8294;BME280;4185;41.506;24.938;2023-07-31T00:58:42;93061.22;;;19.21;82.20
8294;BME280;4185;41.506;24.938;2023-07-31T01:01:09;93075.34;;;19.17;82.36
8294;BME280;4185;41.506;24.938;2023-07-31T01:03:36;93072.03;;;19.11;82.31
8294;BME280;4185;41.506;24.938;2023-07-31T01:06:12;93072.75;;;19.04;82.42
8294;BME280;4185;41.506;24.938;2023-07-31T01:08:44;93069.47;;;18.98;82.88
8294;BME280;4185;41.506;24.938;2023-07-31T01:11:16;93071.47;;;18.98;82.90
8294;BME280;4185;41.506;24.938;2023-07-31T01:13:44;93071.13;;;18.94;82.56
8294;BME280;4185;41.506;24.938;2023-07-31T01:16:12;93062.13;;;18.93;82.64
8294;BME280;4185;41.506;24.938;2023-07-31T01:18:38;93065.22;;;18.90;82.87
8294;BME280;4185;41.506;24.938;2023-07-31T01:21:19;93070.91;;;18.84;83.45
8294;BME280;4185;41.506;24.938;2023-07-31T01:24:05;93068.88;;;18.77;83.39
8294;BME280;4185;41.506;24.938;2023-07-31T01:26:38;93057.53;;;18.73;83.52
8294;BME280;4185;41.506;24.938;2023-07-31T01:29:09;93044.88;;;18.70;83.77
8294;BME280;4185;41.506;24.938;2023-07-31T01:31:38;93063.19;;;18.68;83.74
8294;BME280;4185;41.506;24.938;2023-07-31T01:34:06;93057.34;;;18.64;83.97
8294;BME280;4185;41.506;24.938;2023-07-31T01:36:35;93062.44;;;18.67;83.94
8294;BME280;4185;41.506;24.938;2023-07-31T01:39:02;93061.91;;;18.76;84.01
8294;BME280;4185;41.506;24.938;2023-07-31T01:41:29;93050.38;;;18.85;83.44
8294;BME280;4185;41.506;24.938;2023-07-31T01:43:57;93057.34;;;18.94;83.05
8294;BME280;4185;41.506;24.938;2023-07-31T01:46:24;93069.28;;;18.96;82.43
8294;BME280;4185;41.506;24.938;2023-07-31T01:48:51;93068.16;;;18.99;82.50
8294;BME280;4185;41.506;24.938;2023-07-31T01:51:18;93067.44;;;18.99;82.35
8294;BME280;4185;41.506;24.938;2023-07-31T01:53:44;93065.03;;;19.03;82.52
8294;BME280;4185;41.506;24.938;2023-07-31T01:56:11;93063.22;;;18.98;82.40
8294;BME280;4185;41.506;24.938;2023-07-31T01:58:38;93061.03;;;18.89;82.70
8294;BME280;4185;41.506;24.938;2023-07-31T02:01:06;93062.66;;;18.84;82.56
8294;BME280;4185;41.506;24.938;2023-07-31T02:03:33;93067.41;;;18.76;83.14
8294;BME280;4185;41.506;24.938;2023-07-31T02:06:00;93062.44;;;18.67;83.35
8294;BME280;4185;41.506;24.938;2023-07-31T02:08:26;93064.81;;;18.56;83.68
8294;BME280;4185;41.506;24.938;2023-07-31T02:10:53;93058.53;;;18.40;85.22
8294;BME280;4185;41.506;24.938;2023-07-31T02:13:20;93056.50;;;18.33;85.41
8294;BME280;4185;41.506;24.938;2023-07-31T02:15:48;93052.81;;;18.31;85.70
8294;BME280;4185;41.506;24.938;2023-07-31T02:18:17;93056.66;;;18.35;86.05
8294;BME280;4185;41.506;24.938;2023-07-31T02:20:48;93051.41;;;18.45;85.46
8294;BME280;4185;41.506;24.938;2023-07-31T02:23:15;93053.63;;;18.46;85.42
8294;BME280;4185;41.506;24.938;2023-07-31T02:25:42;93050.50;;;18.50;85.29
8294;BME280;4185;41.506;24.938;2023-07-31T02:28:08;93059.50;;;18.58;85.09
8294;BME280;4185;41.506;24.938;2023-07-31T02:30:35;93060.59;;;18.62;84.79
8294;BME280;4185;41.506;24.938;2023-07-31T02:33:02;93067.22;;;18.59;84.61
8294;BME280;4185;41.506;24.938;2023-07-31T02:35:30;93068.84;;;18.62;84.57
8294;BME280;4185;41.506;24.938;2023-07-31T02:37:57;93071.09;;;18.64;84.35
8294;BME280;4185;41.506;24.938;2023-07-31T02:40:24;93075.28;;;18.65;84.22
8294;BME280;4185;41.506;24.938;2023-07-31T02:42:50;93079.34;;;18.71;83.98
8294;BME280;4185;41.506;24.938;2023-07-31T02:45:17;93085.59;;;18.72;83.78
8294;BME280;4185;41.506;24.938;2023-07-31T02:47:44;93094.00;;;18.66;83.90
8294;BME280;4185;41.506;24.938;2023-07-31T02:50:11;93096.56;;;18.64;84.24
8294;BME280;4185;41.506;24.938;2023-07-31T02:52:39;93092.53;;;18.65;84.07
8294;BME280;4185;41.506;24.938;2023-07-31T02:55:06;93095.47;;;18.67;83.90
8294;BME280;4185;41.506;24.938;2023-07-31T02:57:33;93097.69;;;18.69;83.78
8294;BME280;4185;41.506;24.938;2023-07-31T03:00:00;93099.50;;;18.66;84.28
8294;BME280;4185;41.506;24.938;2023-07-31T03:02:28;93096.19;;;18.60;84.17
8294;BME280;4185;41.506;24.938;2023-07-31T03:04:54;93094.34;;;18.55;84.32
8294;BME280;4185;41.506;24.938;2023-07-31T03:07:21;93104.59;;;18.47;84.87
8294;BME280;4185;41.506;24.938;2023-07-31T03:09:49;93093.94;;;18.44;84.96
8294;BME280;4185;41.506;24.938;2023-07-31T03:12:16;93111.56;;;18.48;84.91
8294;BME280;4185;41.506;24.938;2023-07-31T03:14:43;93117.44;;;18.45;84.70
8294;BME280;4185;41.506;24.938;2023-07-31T03:17:09;93113.34;;;18.38;85.28
8294;BME280;4185;41.506;24.938;2023-07-31T03:19:36;93110.59;;;18.38;85.15
8294;BME280;4185;41.506;24.938;2023-07-31T03:22:03;93109.88;;;18.45;84.95
8294;BME280;4185;41.506;24.938;2023-07-31T03:24:30;93104.22;;;18.43;85.14
8294;BME280;4185;41.506;24.938;2023-07-31T03:26:58;93108.19;;;18.35;85.13
8294;BME280;4185;41.506;24.938;2023-07-31T03:29:25;93102.13;;;18.28;85.90
8294;BME280;4185;41.506;24.938;2023-07-31T03:31:52;93101.16;;;18.18;85.63
8294;BME280;4185;41.506;24.938;2023-07-31T03:34:19;93112.91;;;18.19;85.99
8294;BME280;4185;41.506;24.938;2023-07-31T03:36:45;93114.91;;;18.18;86.20
8294;BME280;4185;41.506;24.938;2023-07-31T03:39:12;93111.25;;;18.16;86.28
8294;BME280;4185;41.506;24.938;2023-07-31T03:41:39;93115.84;;;18.21;86.66
8294;BME280;4185;41.506;24.938;2023-07-31T03:44:07;93105.75;;;18.23;86.72
8294;BME280;4185;41.506;24.938;2023-07-31T03:46:34;93108.31;;;18.21;86.42
8294;BME280;4185;41.506;24.938;2023-07-31T03:49:01;93115.25;;;18.15;85.88
8294;BME280;4185;41.506;24.938;2023-07-31T03:51:28;93096.38;;;18.11;87.37
8294;BME280;4185;41.506;24.938;2023-07-31T03:53:55;93107.00;;;18.15;87.16
8294;BME280;4185;41.506;24.938;2023-07-31T03:56:21;93101.50;;;18.15;86.91
8294;BME280;4185;41.506;24.938;2023-07-31T03:58:48;93112.69;;;18.09;87.87
8294;BME280;4185;41.506;24.938;2023-07-31T04:01:16;93110.66;;;18.10;87.98
8294;BME280;4185;41.506;24.938;2023-07-31T04:03:44;93109.94;;;18.17;87.58
8294;BME280;4185;41.506;24.938;2023-07-31T04:06:11;93114.75;;;18.24;87.54
8294;BME280;4185;41.506;24.938;2023-07-31T04:08:38;93107.09;;;18.38;87.28
8294;BME280;4185;41.506;24.938;2023-07-31T04:11:05;93106.25;;;18.50;86.88
8294;BME280;4185;41.506;24.938;2023-07-31T04:13:31;93098.56;;;18.56;86.56
8294;BME280;4185;41.506;24.938;2023-07-31T04:15:59;93101.31;;;18.56;86.60
8294;BME280;4185;41.506;24.938;2023-07-31T04:18:27;93099.47;;;18.51;87.13
8294;BME280;4185;41.506;24.938;2023-07-31T04:20:56;93102.38;;;18.46;86.90
8294;BME280;4185;41.506;24.938;2023-07-31T04:23:23;93092.88;;;18.47;87.30
8294;BME280;4185;41.506;24.938;2023-07-31T04:25:50;93096.53;;;18.49;87.51
8294;BME280;4185;41.506;24.938;2023-07-31T04:28:17;93087.72;;;18.51;86.55
8294;BME280;4185;41.506;24.938;2023-07-31T04:30:44;93092.31;;;18.48;86.62
8294;BME280;4185;41.506;24.938;2023-07-31T04:33:10;93103.88;;;18.47;87.06
8294;BME280;4185;41.506;24.938;2023-07-31T04:35:39;93103.53;;;18.58;87.46
8294;BME280;4185;41.506;24.938;2023-07-31T04:38:05;93100.25;;;18.67;87.42
8294;BME280;4185;41.506;24.938;2023-07-31T04:40:32;93104.66;;;18.70;87.07
8294;BME280;4185;41.506;24.938;2023-07-31T04:42:59;93109.97;;;18.68;86.72
8294;BME280;4185;41.506;24.938;2023-07-31T04:45:26;93112.16;;;18.69;87.02
8294;BME280;4185;41.506;24.938;2023-07-31T04:47:52;93121.91;;;18.70;87.51
8294;BME280;4185;41.506;24.938;2023-07-31T04:50:19;93119.50;;;18.74;87.67
8294;BME280;4185;41.506;24.938;2023-07-31T04:52:47;93122.25;;;18.74;87.52
8294;BME280;4185;41.506;24.938;2023-07-31T04:55:14;93122.84;;;18.80;88.06
8294;BME280;4185;41.506;24.938;2023-07-31T04:57:41;93128.88;;;18.86;88.34
8294;BME280;4185;41.506;24.938;2023-07-31T05:00:08;93127.97;;;18.84;88.30
8294;BME280;4185;41.506;24.938;2023-07-31T05:02:35;93138.59;;;18.80;88.59
8294;BME280;4185;41.506;24.938;2023-07-31T05:05:02;93140.81;;;18.74;89.49
8294;BME280;4185;41.506;24.938;2023-07-31T05:07:29;93137.50;;;18.75;90.47
8294;BME280;4185;41.506;24.938;2023-07-31T05:09:57;93136.94;;;18.84;90.14
8294;BME280;4185;41.506;24.938;2023-07-31T05:12:23;93134.94;;;18.85;88.97
8294;BME280;4185;41.506;24.938;2023-07-31T05:14:50;93140.25;;;18.83;89.66
8294;BME280;4185;41.506;24.938;2023-07-31T05:17:17;93141.91;;;18.78;90.07
8294;BME280;4185;41.506;24.938;2023-07-31T05:19:44;93147.22;;;18.76;90.30
8294;BME280;4185;41.506;24.938;2023-07-31T05:22:10;93150.16;;;18.78;90.69
8294;BME280;4185;41.506;24.938;2023-07-31T05:24:37;93151.25;;;18.83;91.47
8294;BME280;4185;41.506;24.938;2023-07-31T05:27:06;93148.00;;;18.92;90.78
8294;BME280;4185;41.506;24.938;2023-07-31T05:29:33;93152.03;;;18.98;91.03
8294;BME280;4185;41.506;24.938;2023-07-31T05:32:00;93153.88;;;19.03;90.62
8294;BME280;4185;41.506;24.938;2023-07-31T05:34:27;93160.28;;;18.98;90.75
8294;BME280;4185;41.506;24.938;2023-07-31T05:36:54;93170.16;;;18.86;91.84
8294;BME280;4185;41.506;24.938;2023-07-31T05:39:20;93172.56;;;18.82;92.56
8294;BME280;4185;41.506;24.938;2023-07-31T05:41:47;93161.56;;;18.82;93.14
8294;BME280;4185;41.506;24.938;2023-07-31T05:44:15;93150.53;;;18.90;94.10
8294;BME280;4185;41.506;24.938;2023-07-31T05:46:42;93145.22;;;18.92;94.31
8294;BME280;4185;41.506;24.938;2023-07-31T05:49:09;93155.84;;;18.88;93.89
8294;BME280;4185;41.506;24.938;2023-07-31T05:51:35;93165.59;;;18.89;93.97
8294;BME280;4185;41.506;24.938;2023-07-31T05:54:02;93182.81;;;18.89;94.73
8294;BME280;4185;41.506;24.938;2023-07-31T05:56:29;93174.78;;;18.91;96.76
8294;BME280;4185;41.506;24.938;2023-07-31T05:58:57;93178.09;;;18.97;96.35
8294;BME280;4185;41.506;24.938;2023-07-31T06:01:25;93171.84;;;19.04;96.99
8294;BME280;4185;41.506;24.938;2023-07-31T06:03:52;93173.69;;;19.09;95.65
8294;BME280;4185;41.506;24.938;2023-07-31T06:06:18;93187.66;;;19.04;95.52
8294;BME280;4185;41.506;24.938;2023-07-31T06:08:45;93185.81;;;18.99;97.38
8294;BME280;4185;41.506;24.938;2023-07-31T06:11:12;93198.81;;;18.98;96.09
8294;BME280;4185;41.506;24.938;2023-07-31T06:13:39;93199.72;;;18.93;96.27
8294;BME280;4185;41.506;24.938;2023-07-31T06:16:06;93201.94;;;18.87;97.23
8294;BME280;4185;41.506;24.938;2023-07-31T06:18:34;93203.22;;;18.94;97.39
8294;BME280;4185;41.506;24.938;2023-07-31T06:21:00;93209.69;;;19.04;96.35
8294;BME280;4185;41.506;24.938;2023-07-31T06:23:27;93206.22;;;19.26;95.90
8294;BME280;4185;41.506;24.938;2023-07-31T06:25:54;93193.22;;;19.41;96.46
8294;BME280;4185;41.506;24.938;2023-07-31T06:28:21;93197.28;;;19.56;95.65
8294;BME280;4185;41.506;24.938;2023-07-31T06:30:48;93202.06;;;19.63;95.66
8294;BME280;4185;41.506;24.938;2023-07-31T06:33:14;93205.34;;;19.69;94.73
8294;BME280;4185;41.506;24.938;2023-07-31T06:35:42;93207.56;;;19.93;94.05
8294;BME280;4185;41.506;24.938;2023-07-31T06:38:10;93218.19;;;20.11;95.03
8294;BME280;4185;41.506;24.938;2023-07-31T06:40:37;93212.13;;;20.13;94.17
8294;BME280;4185;41.506;24.938;2023-07-31T06:43:04;93214.16;;;20.20;94.71
8294;BME280;4185;41.506;24.938;2023-07-31T06:45:33;93216.72;;;20.18;95.38
8294;BME280;4185;41.506;24.938;2023-07-31T06:48:01;93206.25;;;20.24;94.17
8294;BME280;4185;41.506;24.938;2023-07-31T06:50:28;93200.88;;;20.41;93.00
8294;BME280;4185;41.506;24.938;2023-07-31T06:52:56;93198.09;;;20.48;92.22
8294;BME280;4185;41.506;24.938;2023-07-31T06:55:24;93214.59;;;20.63;93.13
8294;BME280;4185;41.506;24.938;2023-07-31T06:57:52;93211.06;;;20.71;90.90
8294;BME280;4185;41.506;24.938;2023-07-31T07:00:19;93218.59;;;20.70;91.23
8294;BME280;4185;41.506;24.938;2023-07-31T07:02:47;93218.22;;;20.81;91.29
8294;BME280;4185;41.506;24.938;2023-07-31T07:05:15;93211.63;;;21.16;89.53
8294;BME280;4185;41.506;24.938;2023-07-31T07:07:42;93212.56;;;21.43;88.79
8294;BME280;4185;41.506;24.938;2023-07-31T07:10:11;93215.75;;;21.64;86.90
8294;BME280;4185;41.506;24.938;2023-07-31T07:12:38;93203.97;;;21.56;86.67
8294;BME280;4185;41.506;24.938;2023-07-31T07:15:05;93206.13;;;21.65;82.56
8294;BME280;4185;41.506;24.938;2023-07-31T07:17:32;93205.47;;;21.57;83.00
8294;BME280;4185;41.506;24.938;2023-07-31T07:19:59;93204.41;;;21.53;81.08
8294;BME280;4185;41.506;24.938;2023-07-31T07:22:27;93207.31;;;21.55;82.15
8294;BME280;4185;41.506;24.938;2023-07-31T07:24:53;93216.47;;;21.65;82.04
8294;BME280;4185;41.506;24.938;2023-07-31T07:27:22;93218.66;;;21.66;81.54
8294;BME280;4185;41.506;24.938;2023-07-31T07:29:50;93216.41;;;21.72;81.42
8294;BME280;4185;41.506;24.938;2023-07-31T07:32:17;93222.28;;;21.76;81.47
8294;BME280;4185;41.506;24.938;2023-07-31T07:34:44;93221.75;;;21.70;80.83
8294;BME280;4185;41.506;24.938;2023-07-31T07:37:11;93219.88;;;21.81;80.22
8294;BME280;4185;41.506;24.938;2023-07-31T07:39:38;93222.19;;;21.92;78.21
8294;BME280;4185;41.506;24.938;2023-07-31T07:42:05;93214.47;;;21.90;80.06
8294;BME280;4185;41.506;24.938;2023-07-31T07:44:33;93214.34;;;21.81;79.91
8294;BME280;4185;41.506;24.938;2023-07-31T07:47:00;93217.09;;;21.81;79.68
8294;BME280;4185;41.506;24.938;2023-07-31T07:49:27;93223.31;;;21.89;79.95
8294;BME280;4185;41.506;24.938;2023-07-31T07:51:54;93222.91;;;21.92;80.11
8294;BME280;4185;41.506;24.938;2023-07-31T07:54:20;93213.91;;;21.92;80.09
8294;BME280;4185;41.506;24.938;2023-07-31T07:56:47;93210.00;;;21.95;80.14
8294;BME280;4185;41.506;24.938;2023-07-31T07:59:15;93225.63;;;22.00;80.23
8294;BME280;4185;41.506;24.938;2023-07-31T08:01:43;93218.38;;;22.04;79.46
8294;BME280;4185;41.506;24.938;2023-07-31T08:04:10;93205.31;;;22.22;78.64
8294;BME280;4185;41.506;24.938;2023-07-31T08:06:36;93206.31;;;22.34;78.46
8294;BME280;4185;41.506;24.938;2023-07-31T08:09:03;93208.41;;;22.43;77.81
8294;BME280;4185;41.506;24.938;2023-07-31T08:11:31;93210.59;;;22.44;77.52
8294;BME280;4185;41.506;24.938;2023-07-31T08:13:58;93207.97;;;22.54;76.22
8294;BME280;4185;41.506;24.938;2023-07-31T08:16:25;93204.84;;;22.67;74.95
8294;BME280;4185;41.506;24.938;2023-07-31T08:18:53;93208.13;;;22.73;75.41
8294;BME280;4185;41.506;24.938;2023-07-31T08:21:21;93208.25;;;22.92;76.17
8294;BME280;4185;41.506;24.938;2023-07-31T08:23:48;93204.31;;;22.95;74.41
8294;BME280;4185;41.506;24.938;2023-07-31T08:26:15;93200.53;;;22.90;73.75
8294;BME280;4185;41.506;24.938;2023-07-31T08:28:42;93201.03;;;22.79;73.94
8294;BME280;4185;41.506;24.938;2023-07-31T08:31:09;93210.56;;;22.69;74.94
8294;BME280;4185;41.506;24.938;2023-07-31T08:33:36;93217.25;;;22.66;75.73
8294;BME280;4185;41.506;24.938;2023-07-31T08:36:04;93213.81;;;22.75;74.95
8294;BME280;4185;41.506;24.938;2023-07-31T08:38:31;93204.53;;;22.80;74.10
8294;BME280;4185;41.506;24.938;2023-07-31T08:40:58;93205.44;;;23.09;74.04
8294;BME280;4185;41.506;24.938;2023-07-31T08:43:26;93200.00;;;23.45;72.89
8294;BME280;4185;41.506;24.938;2023-07-31T08:45:53;93201.53;;;23.65;72.06
8294;BME280;4185;41.506;24.938;2023-07-31T08:48:22;93193.22;;;23.65;70.87
8294;BME280;4185;41.506;24.938;2023-07-31T08:50:49;93204.22;;;23.46;71.35
8294;BME280;4185;41.506;24.938;2023-07-31T08:53:18;93197.22;;;23.45;71.13
8294;BME280;4185;41.506;24.938;2023-07-31T08:55:45;93195.91;;;23.46;70.23
8294;BME280;4185;41.506;24.938;2023-07-31T08:58:13;93193.19;;;23.56;69.31
8294;BME280;4185;41.506;24.938;2023-07-31T09:00:40;93194.31;;;23.79;69.50
8294;BME280;4185;41.506;24.938;2023-07-31T09:03:13;93187.03;;;23.93;69.57
8294;BME280;4185;41.506;24.938;2023-07-31T09:05:42;93188.97;;;24.00;67.95
8294;BME280;4185;41.506;24.938;2023-07-31T09:08:09;93190.47;;;24.11;67.25
8294;BME280;4185;41.506;24.938;2023-07-31T09:10:41;93183.63;;;24.22;66.86
8294;BME280;4185;41.506;24.938;2023-07-31T09:13:09;93180.59;;;24.37;67.58
8294;BME280;4185;41.506;24.938;2023-07-31T09:15:36;93192.28;;;24.54;66.15
8294;BME280;4185;41.506;24.938;2023-07-31T09:18:05;93190.28;;;24.74;65.37
8294;BME280;4185;41.506;24.938;2023-07-31T09:20:32;93185.44;;;24.84;64.55
8294;BME280;4185;41.506;24.938;2023-07-31T09:23:06;93186.31;;;24.77;61.90
8294;BME280;4185;41.506;24.938;2023-07-31T09:25:34;93184.72;;;24.74;62.01
8294;BME280;4185;41.506;24.938;2023-07-31T09:28:04;93180.91;;;24.79;61.72
8294;BME280;4185;41.506;24.938;2023-07-31T09:30:32;93189.66;;;24.85;61.51
8294;BME280;4185;41.506;24.938;2023-07-31T09:33:10;93187.78;;;25.06;62.06
8294;BME280;4185;41.506;24.938;2023-07-31T09:35:36;93181.72;;;25.29;59.35
8294;BME280;4185;41.506;24.938;2023-07-31T09:38:07;93180.50;;;25.51;59.03
8294;BME280;4185;41.506;24.938;2023-07-31T09:40:35;93178.88;;;25.58;59.85
8294;BME280;4185;41.506;24.938;2023-07-31T09:43:05;93183.38;;;25.72;59.05
8294;BME280;4185;41.506;24.938;2023-07-31T09:45:34;93186.41;;;25.76;59.04
8294;BME280;4185;41.506;24.938;2023-07-31T09:48:01;93180.69;;;25.74;58.50
8294;BME280;4185;41.506;24.938;2023-07-31T09:50:29;93177.97;;;25.95;57.14
8294;BME280;4185;41.506;24.938;2023-07-31T09:52:55;93173.19;;;26.17;57.19
8294;BME280;4185;41.506;24.938;2023-07-31T09:55:23;93173.69;;;26.34;55.76
8294;BME280;4185;41.506;24.938;2023-07-31T09:57:50;93173.28;;;26.50;56.55
8294;BME280;4185;41.506;24.938;2023-07-31T10:00:20;93175.75;;;26.55;55.17
8294;BME280;4185;41.506;24.938;2023-07-31T10:02:51;93172.69;;;26.51;55.50
8294;BME280;4185;41.506;24.938;2023-07-31T10:05:19;93179.88;;;26.66;55.88
8294;BME280;4185;41.506;24.938;2023-07-31T10:07:51;93165.72;;;26.62;54.30
8294;BME280;4185;41.506;24.938;2023-07-31T10:10:20;93159.22;;;26.48;55.11
8294;BME280;4185;41.506;24.938;2023-07-31T10:12:48;93162.22;;;26.40;55.94
8294;BME280;4185;41.506;24.938;2023-07-31T10:15:16;93158.00;;;26.51;56.35
8294;BME280;4185;41.506;24.938;2023-07-31T10:17:47;93170.41;;;26.59;55.64
8294;BME280;4185;41.506;24.938;2023-07-31T10:20:14;93159.03;;;26.55;56.04
8294;BME280;4185;41.506;24.938;2023-07-31T10:22:42;93159.09;;;26.67;56.36
8294;BME280;4185;41.506;24.938;2023-07-31T10:25:09;93153.75;;;26.92;56.29
8294;BME280;4185;41.506;24.938;2023-07-31T10:27:38;93155.97;;;27.05;55.42
8294;BME280;4185;41.506;24.938;2023-07-31T10:30:08;93153.53;;;26.99;55.20
8294;BME280;4185;41.506;24.938;2023-07-31T10:32:35;93145.41;;;27.03;54.48
8294;BME280;4185;41.506;24.938;2023-07-31T10:35:04;93148.63;;;27.21;54.40
8294;BME280;4185;41.506;24.938;2023-07-31T10:37:37;93144.53;;;27.33;54.05
8294;BME280;4185;41.506;24.938;2023-07-31T10:40:05;93135.47;;;27.33;52.18
8294;BME280;4185;41.506;24.938;2023-07-31T10:42:34;93144.19;;;27.39;52.44
8294;BME280;4185;41.506;24.938;2023-07-31T10:45:03;93122.00;;;27.41;52.89
8294;BME280;4185;41.506;24.938;2023-07-31T10:47:30;93119.56;;;27.35;54.26
8294;BME280;4185;41.506;24.938;2023-07-31T10:50:28;93139.00;;;27.68;53.54
8294;BME280;4185;41.506;24.938;2023-07-31T10:52:58;93131.97;;;27.67;52.98
8294;BME280;4185;41.506;24.938;2023-07-31T10:55:28;93126.25;;;27.42;52.83
8294;BME280;4185;41.506;24.938;2023-07-31T10:57:57;93112.56;;;27.57;54.16
8294;BME280;4185;41.506;24.938;2023-07-31T11:00:26;93111.81;;;27.57;54.30
8294;BME280;4185;41.506;24.938;2023-07-31T11:02:57;93120.00;;;27.20;54.18
8294;BME280;4185;41.506;24.938;2023-07-31T11:05:43;93123.34;;;26.96;55.06
8294;BME280;4185;41.506;24.938;2023-07-31T11:08:12;93131.06;;;26.86;56.28
8294;BME280;4185;41.506;24.938;2023-07-31T11:10:39;93124.47;;;26.70;56.44
8294;BME280;4185;41.506;24.938;2023-07-31T11:13:06;93118.31;;;26.50;56.79
8294;BME280;4185;41.506;24.938;2023-07-31T11:15:33;93124.66;;;26.41;57.90
8294;BME280;4185;41.506;24.938;2023-07-31T11:18:00;93128.72;;;26.28;58.50
8294;BME280;4185;41.506;24.938;2023-07-31T11:20:29;93140.38;;;26.15;58.98
8294;BME280;4185;41.506;24.938;2023-07-31T11:23:00;93132.56;;;26.02;59.52
8294;BME280;4185;41.506;24.938;2023-07-31T11:25:29;93138.28;;;25.95;59.95
8294;BME280;4185;41.506;24.938;2023-07-31T11:27:56;93140.06;;;25.90;60.08
8294;BME280;4185;41.506;24.938;2023-07-31T11:30:23;93141.41;;;25.89;60.04
8294;BME280;4185;41.506;24.938;2023-07-31T11:32:50;93139.66;;;25.84;60.24
8294;BME280;4185;41.506;24.938;2023-07-31T11:35:17;93142.03;;;25.78;61.75
8294;BME280;4185;41.506;24.938;2023-07-31T11:37:44;93139.56;;;25.73;61.75
8294;BME280;4185;41.506;24.938;2023-07-31T11:40:13;93130.72;;;25.55;62.93
8294;BME280;4185;41.506;24.938;2023-07-31T11:42:40;93119.50;;;25.44;63.20
8294;BME280;4185;41.506;24.938;2023-07-31T11:45:08;93121.69;;;25.45;63.05
8294;BME280;4185;41.506;24.938;2023-07-31T11:47:37;93128.31;;;25.40;62.40
8294;BME280;4185;41.506;24.938;2023-07-31T11:50:05;93111.88;;;25.44;62.25
8294;BME280;4185;41.506;24.938;2023-07-31T11:52:36;93106.16;;;25.42;62.19
8294;BME280;4185;41.506;24.938;2023-07-31T11:55:05;93107.66;;;25.43;62.13
8294;BME280;4185;41.506;24.938;2023-07-31T11:57:37;93110.88;;;25.40;61.52
8294;BME280;4185;41.506;24.938;2023-07-31T12:00:06;93109.38;;;25.48;61.83
8294;BME280;4185;41.506;24.938;2023-07-31T12:02:35;93108.47;;;25.55;61.59
8294;BME280;4185;41.506;24.938;2023-07-31T12:05:02;93123.97;;;25.58;61.35
8294;BME280;4185;41.506;24.938;2023-07-31T12:07:43;93134.81;;;25.54;61.97
8294;BME280;4185;41.506;24.938;2023-07-31T12:10:10;93137.44;;;25.52;61.98
8294;BME280;4185;41.506;24.938;2023-07-31T12:12:38;93133.81;;;25.50;62.68
8294;BME280;4185;41.506;24.938;2023-07-31T12:15:14;93131.63;;;25.48;63.00
8294;BME280;4185;41.506;24.938;2023-07-31T12:17:41;93142.47;;;25.44;62.82
8294;BME280;4185;41.506;24.938;2023-07-31T12:20:09;93133.97;;;25.42;62.37
8294;BME280;4185;41.506;24.938;2023-07-31T12:22:36;93132.22;;;25.47;62.67
8294;BME280;4185;41.506;24.938;2023-07-31T12:25:03;93123.69;;;25.54;62.63
8294;BME280;4185;41.506;24.938;2023-07-31T12:27:32;93124.25;;;25.62;62.98
8294;BME280;4185;41.506;24.938;2023-07-31T12:30:01;93132.56;;;25.72;63.03
8294;BME280;4185;41.506;24.938;2023-07-31T12:32:30;93122.69;;;25.80;62.32
8294;BME280;4185;41.506;24.938;2023-07-31T12:34:59;93108.00;;;25.89;62.39
8294;BME280;4185;41.506;24.938;2023-07-31T12:37:26;93104.16;;;25.94;61.86
8294;BME280;4185;41.506;24.938;2023-07-31T12:39:53;93097.66;;;26.01;61.55
8294;BME280;4185;41.506;24.938;2023-07-31T12:42:20;93084.03;;;26.05;60.77
8294;BME280;4185;41.506;24.938;2023-07-31T12:44:46;93074.94;;;26.05;61.27
8294;BME280;4185;41.506;24.938;2023-07-31T12:47:15;93084.03;;;26.05;61.01
8294;BME280;4185;41.506;24.938;2023-07-31T12:49:41;93087.28;;;26.02;61.51
8294;BME280;4185;41.506;24.938;2023-07-31T12:52:08;93098.84;;;25.98;61.45
8294;BME280;4185;41.506;24.938;2023-07-31T12:54:35;93109.56;;;25.71;61.78
8294;BME280;4185;41.506;24.938;2023-07-31T12:57:02;93126.81;;;25.39;62.47
8294;BME280;4185;41.506;24.938;2023-07-31T12:59:29;93133.75;;;25.19;64.30
8294;BME280;4185;41.506;24.938;2023-07-31T13:01:56;93132.28;;;25.18;64.86
8294;BME280;4185;41.506;24.938;2023-07-31T13:04:24;93131.78;;;25.41;66.13
8294;BME280;4185;41.506;24.938;2023-07-31T13:06:51;93129.53;;;25.58;68.70
8294;BME280;4185;41.506;24.938;2023-07-31T13:09:17;93115.53;;;25.77;71.34
8294;BME280;4185;41.506;24.938;2023-07-31T13:11:44;93113.31;;;26.06;74.31
8294;BME280;4185;41.506;24.938;2023-07-31T13:14:11;93107.69;;;26.37;71.97